Pagrindinis puslapis
METAR-TAF:

METAR-TAF

Oro uostai :

Kristianstadas, Švedija

platuma: 55-55N, ilguma: 014-05E, Aukštis: 23 m

Dabartinis oras

Ataskaita buvo paskelbta 19 minutes, ne 12:50 UTC
Vėjas 10 kt iš Vakarų/Šiaurės Vakarų
Temperatūra 5°C
Drėgmė 87%
Slėgis 1004 hPa
Matomumas 10 km arba daugiau
Išsisklaidę debesys ne aukštis 1500 ft
Su prošvaistėmis ne aukštis 3100 ft

METAR: ESMK 191250Z 29010KT 9999 SCT015 BKN031 05/03 Q1004

Laikas: 14:09 (13:09 UTC)

Prognozė

Ataskaita buvo paskelbta 2 valandos ir 1 minutes, ne 11:08 UTC
Prognozė galioja nuo 19 metu 12 UTC su 19 metu 20 UTC
Vėjas 8 kt iš Vakarų
Matomumas: 8000 m
Su prošvaistėmis ne aukštis 800 ft
Su prošvaistėmis ne aukštis 2000 ft, Liūtiniai kamuoliniai debesys.
lietus
Tapsmas
nuo 19 metu 12 UTC su 19 metu 15 UTC
Išsisklaidę debesys ne aukštis 2000 ft

TAF: ESMK 191108Z 1912/1920 28008KT 8000 SHRA BKN008 BKN020CB BECMG 1912/1915 NSW SCT020

Orai ataskaitas ir orų prognozės (METAR, TAF).

turimą stotys yra geltonos ir raudonos taškus žemėlapyje.

Perkelti pele per norėdami pamatyti stoties vardą.

Tada spustelėkite, norėdami matyti oro stebėjimo ir prognozės.

Norėdami pakeisti žemėlapį: spustelėkite ant žalios mygtukų su juodo kryžiaus žemyn,; žalią mygtuką su brūkšneliu, jei norite nutolinti; arba žalių rodyklių gretimoms žemėlapius.


METAR-TAF: